Time;durP1;ratioP1;P1;durP2;ratioP2;P2;SDS_P1;SDS_P2;PMS_P1;PMS_P2;Temp;Humidity;BMP_temperature;BMP_pressure;BME280_temperature;BME280_humidity;BME280_pressure;Samples;Min_cycle;Max_cycle;Signal;HPM_P1;HPM_P2
2023/09/04 00:00:25;;;;;;;;;5.00;5.00;;;;;28.77;47.25;102224.94;5117213;27;45340;-82
2023/09/04 00:02:51;;;;;;;;;5.00;5.00;;;;;28.75;46.97;102221.63;5116408;27;45492;-81
2023/09/04 00:05:18;;;;;;;;;5.33;4.00;;;;;28.76;46.64;102223.25;5099984;27;46558;-81
2023/09/04 00:07:47;;;;;;;;;5.00;4.00;;;;;28.77;46.75;102224.94;5116455;27;45519;-82
2023/09/04 00:10:12;;;;;;;;;5.00;5.00;;;;;28.75;47.17;102218.94;5112859;27;45420;-82
2023/09/04 00:12:38;;;;;;;;;4.00;4.00;;;;;28.80;46.89;102224.53;5117079;27;45483;-82
2023/09/04 00:15:05;;;;;;;;;6.00;5.33;;;;;28.63;47.03;102198.03;5115442;27;47326;-82
2023/09/04 00:17:30;;;;;;;;;5.00;5.00;;;;;28.81;46.97;102228.84;5116697;27;45361;-82
2023/09/04 00:19:56;;;;;;;;;7.67;4.67;;;;;28.72;47.14;102205.94;5116896;27;45209;-80
2023/09/04 00:22:22;;;;;;;;;5.00;5.00;;;;;28.77;47.07;102213.38;5116573;27;45546;-79
2023/09/04 00:24:47;;;;;;;;;6.33;6.00;;;;;28.78;47.26;102212.38;5098085;27;46654;-80
2023/09/04 00:27:12;;;;;;;;;4.33;4.33;;;;;28.78;46.76;102213.16;5116803;27;45308;-80
2023/09/04 00:29:38;;;;;;;;;7.00;4.00;;;;;28.75;47.12;102210.91;5116866;27;45274;-80
2023/09/04 00:32:03;;;;;;;;;4.00;4.00;;;;;28.82;47.11;102218.97;5116823;27;45699;-80
2023/09/04 00:34:29;;;;;;;;;7.67;4.33;;;;;28.74;47.11;102203.88;5116497;27;45660;-80
2023/09/04 00:36:54;;;;;;;;;6.67;5.67;;;;;28.75;47.29;102205.56;5116106;27;45362;-79
2023/09/04 00:39:20;;;;;;;;;4.67;4.33;;;;;28.68;47.52;102188.56;5116609;27;45436;-80
2023/09/04 00:41:46;;;;;;;;;6.00;5.00;;;;;28.76;47.14;102203.69;5098090;27;45370;-80
2023/09/04 00:44:12;;;;;;;;;5.67;5.67;;;;;28.79;46.81;102214.00;5116060;27;46474;-79
2023/09/04 00:46:39;;;;;;;;;4.00;4.00;;;;;28.72;47.06;102196.06;5116345;27;45395;-79
2023/09/04 00:49:05;;;;;;;;;3.00;3.00;;;;;28.73;46.91;102200.38;5115101;27;45339;-80
2023/09/04 00:51:30;;;;;;;;;5.00;5.00;;;;;28.80;47.28;102203.13;5119176;27;45586;-79
2023/09/04 00:53:56;;;;;;;;;5.00;5.00;;;;;28.76;47.16;102199.16;5119993;27;45487;-80
2023/09/04 00:56:22;;;;;;;;;7.33;5.00;;;;;28.74;47.08;102185.13;5101182;27;45443;-80
2023/09/04 00:58:48;;;;;;;;;3.33;3.33;;;;;28.78;46.85;102197.09;5119952;27;45290;-80
2023/09/04 01:01:14;;;;;;;;;4.00;4.00;;;;;28.77;46.63;102191.97;5119910;27;45613;-80
2023/09/04 01:03:39;;;;;;;;;5.33;4.00;;;;;28.75;46.87;102176.09;5119628;27;45552;-79
2023/09/04 01:06:05;;;;;;;;;4.67;4.67;;;;;28.77;47.22;102178.56;5119370;27;45528;-80
2023/09/04 01:08:30;;;;;;;;;5.67;3.67;;;;;28.78;46.88;102181.03;5119318;27;45365;-80
2023/09/04 01:11:37;;;;;;;;;4.00;4.00;;;;;28.83;47.00;102188.50;5119716;27;45352;-80
2023/09/04 01:14:10;;;;;;;;;4.33;4.33;;;;;28.81;47.17;102185.19;5110793;27;46666;-79
2023/09/04 01:16:37;;;;;;;;;6.00;6.00;;;;;28.77;47.28;102167.84;5100809;27;45349;-80
2023/09/04 01:19:03;;;;;;;;;7.00;5.33;;;;;28.82;47.18;102176.13;5119713;27;45371;-80
2023/09/04 01:21:28;;;;;;;;;4.00;4.00;;;;;28.81;47.05;102169.94;5100540;27;45623;-80
2023/09/04 01:23:53;;;;;;;;;6.00;5.00;;;;;28.81;46.94;102175.28;5101097;27;46425;-79
2023/09/04 01:26:26;;;;;;;;;4.00;4.00;;;;;28.77;46.85;102155.28;5119622;27;45308;-80
2023/09/04 01:29:23;;;;;;;;;5.00;5.00;;;;;28.77;46.83;102149.09;5119520;27;45402;-79
2023/09/04 01:31:59;;;;;;;;;5.00;5.00;;;;;28.78;47.30;102154.25;5035409;28;45695;-80
2023/09/04 01:34:29;;;;;;;;;3.00;3.00;;;;;28.75;46.62;102141.28;5035205;28;46592;-79
2023/09/04 01:36:57;;;;;;;;;5.00;5.00;;;;;28.75;47.20;102143.97;5018771;28;45503;-80
2023/09/04 01:39:26;;;;;;;;;8.00;6.00;;;;;28.79;47.13;102147.06;5035356;28;45493;-80
2023/09/04 01:41:52;;;;;;;;;5.00;5.00;;;;;28.80;46.84;102144.19;5035417;28;45474;-80
2023/09/04 01:44:17;;;;;;;;;4.00;4.00;;;;;28.80;46.96;102146.88;5041515;28;46006;-79
2023/09/04 01:46:43;;;;;;;;;6.00;6.00;;;;;28.73;47.31;102135.25;5048405;28;45455;-80
2023/09/04 01:49:08;;;;;;;;;4.00;4.00;;;;;28.81;47.13;102150.34;5039851;28;45519;-80
2023/09/04 01:51:34;;;;;;;;;5.33;5.33;;;;;28.80;46.96;102143.38;5018519;28;45684;-80
2023/09/04 01:53:59;;;;;;;;;4.00;4.00;;;;;28.81;47.25;102139.66;5034871;28;45474;-79
2023/09/04 01:56:25;;;;;;;;;4.00;3.00;;;;;28.74;47.13;102126.22;5035150;28;45651;-80
2023/09/04 01:58:50;;;;;;;;;5.33;5.00;;;;;28.80;46.89;102132.66;5034762;28;45770;-80
2023/09/04 02:01:15;;;;;;;;;6.67;5.67;;;;;28.75;47.09;102119.84;5034422;28;45488;-80
2023/09/04 02:03:44;;;;;;;;;6.33;5.33;;;;;28.76;47.04;102117.97;5034987;28;46498;-79
2023/09/04 02:06:09;;;;;;;;;4.00;4.00;;;;;28.73;47.04;102112.00;5035152;28;45394;-80
2023/09/04 02:08:35;;;;;;;;;4.00;4.00;;;;;28.78;47.24;102124.00;5078494;27;45390;-80
2023/09/04 02:11:00;;;;;;;;;3.67;3.67;;;;;28.76;46.85;102120.66;5100565;27;45236;-80
2023/09/04 02:13:26;;;;;;;;;3.67;3.67;;;;;28.78;46.71;102121.31;5100323;27;45545;-80
2023/09/04 02:15:51;;;;;;;;;5.33;4.67;;;;;28.79;46.96;102114.91;5118275;27;45219;-79
2023/09/04 02:18:16;;;;;;;;;3.00;3.00;;;;;28.72;46.95;102117.56;5118475;27;45232;-80
2023/09/04 02:20:42;;;;;;;;;5.33;5.33;;;;;28.76;47.20;102115.31;5118634;27;45163;-80
2023/09/04 02:23:07;;;;;;;;;5.00;4.33;;;;;28.76;46.93;102108.09;5118669;27;45366;-80
2023/09/04 02:25:33;;;;;;;;;4.67;3.00;;;;;28.74;46.87;102104.81;5100088;27;45357;-80
2023/09/04 02:27:58;;;;;;;;;4.00;4.00;;;;;28.77;46.99;102112.44;5118804;27;45275;-79
2023/09/04 02:30:24;;;;;;;;;4.00;4.00;;;;;28.78;47.12;102110.59;5118470;27;45501;-80
2023/09/04 02:32:58;;;;;;;;;4.00;4.00;;;;;28.77;47.17;102108.94;5117952;27;46388;-80
2023/09/04 02:35:24;;;;;;;;;7.00;5.00;;;;;28.71;46.95;102095.31;5099756;27;45834;-80
2023/09/04 02:37:49;;;;;;;;;4.00;3.67;;;;;28.74;46.90;102094.09;5118448;27;45415;-80
2023/09/04 02:40:15;;;;;;;;;5.00;5.00;;;;;28.75;46.89;102095.75;5118287;27;45606;-80
2023/09/04 02:42:40;;;;;;;;;6.00;4.00;;;;;28.80;47.10;102096.00;5118050;27;45286;-79
2023/09/04 02:45:07;;;;;;;;;4.00;4.00;;;;;28.77;46.71;102082.16;5117984;27;45303;-79
2023/09/04 02:47:34;;;;;;;;;5.00;5.00;;;;;28.76;47.15;102080.50;5117818;27;45469;-79
2023/09/04 02:49:59;;;;;;;;;5.00;5.00;;;;;28.77;46.95;102074.94;5118056;27;45212;-80
2023/09/04 02:52:24;;;;;;;;;3.67;3.67;;;;;28.78;46.68;102086.50;5098516;27;47610;-80
2023/09/04 02:54:50;;;;;;;;;4.00;4.00;;;;;28.78;46.67;102095.34;5117670;27;45256;-80
2023/09/04 02:57:15;;;;;;;;;5.67;5.00;;;;;28.73;47.29;102089.75;5118036;27;45314;-80
2023/09/04 02:59:40;;;;;;;;;4.00;4.00;;;;;28.74;47.01;102091.41;5117759;27;45531;-80
2023/09/04 03:02:06;;;;;;;;;5.00;5.00;;;;;28.76;46.74;102091.19;5117712;27;46204;-80
2023/09/04 03:04:31;;;;;;;;;5.00;5.00;;;;;28.71;46.79;102092.63;5117963;27;45220;-80
2023/09/04 03:06:56;;;;;;;;;4.67;4.67;;;;;28.74;46.89;102100.28;5118012;27;45342;-80
2023/09/04 03:09:22;;;;;;;;;4.00;4.00;;;;;28.72;46.84;102096.97;5118078;27;45331;-80
2023/09/04 03:11:47;;;;;;;;;4.00;4.00;;;;;28.75;47.15;102095.75;5099204;27;46704;-80
2023/09/04 03:14:13;;;;;;;;;4.67;3.00;;;;;28.73;47.26;102103.97;5117700;27;45411;-80
2023/09/04 03:16:39;;;;;;;;;5.00;4.00;;;;;28.62;47.07;102081.22;5117542;27;45365;-80
2023/09/04 03:19:04;;;;;;;;;4.00;4.00;;;;;28.62;47.05;102081.22;5117997;27;45514;-80
2023/09/04 03:21:31;;;;;;;;;4.33;3.67;;;;;28.69;46.87;102083.97;5116618;27;46204;-80
2023/09/04 03:23:56;;;;;;;;;4.67;4.33;;;;;28.75;46.54;102087.72;5117632;27;45328;-80
2023/09/04 03:26:21;;;;;;;;;5.00;4.33;;;;;28.60;47.03;102066.38;5117010;27;45395;-80
2023/09/04 03:28:47;;;;;;;;;4.00;4.00;;;;;28.70;46.67;102082.13;5117727;27;45411;-80
2023/09/04 03:31:14;;;;;;;;;4.00;4.00;;;;;28.71;47.20;102081.91;5098484;27;45462;-80
2023/09/04 03:33:39;;;;;;;;;4.67;4.67;;;;;28.74;47.42;102083.38;5117455;27;45360;-79
2023/09/04 03:36:05;;;;;;;;;6.00;4.00;;;;;28.76;46.78;102086.69;5117331;27;45407;-80
2023/09/04 03:38:30;;;;;;;;;3.00;3.00;;;;;28.76;47.10;102075.13;5117229;27;45540;-79
2023/09/04 03:40:55;;;;;;;;;3.00;3.00;;;;;28.73;46.81;102076.34;5117193;27;45608;-79
2023/09/04 03:43:21;;;;;;;;;5.00;5.00;;;;;28.70;47.18;102068.75;5117408;27;45370;-80
2023/09/04 03:45:46;;;;;;;;;5.33;5.33;;;;;28.69;46.89;102062.56;5117099;27;45378;-79
2023/09/04 03:48:11;;;;;;;;;6.33;5.67;;;;;28.74;46.87;102067.31;5117332;27;45359;-79
2023/09/04 03:50:39;;;;;;;;;3.33;3.33;;;;;28.73;46.83;102077.19;5116245;27;46469;-80
2023/09/04 03:53:04;;;;;;;;;6.00;4.67;;;;;28.74;46.92;102076.19;5120026;27;45595;-79
2023/09/04 03:55:29;;;;;;;;;4.33;4.33;;;;;28.69;47.26;102067.91;5118470;27;45376;-80
2023/09/04 03:57:55;;;;;;;;;6.00;5.33;;;;;28.72;47.02;102080.06;5117336;27;45348;-79
2023/09/04 04:00:21;;;;;;;;;4.00;4.00;;;;;28.72;46.88;102070.19;5115296;27;46317;-80
2023/09/04 04:02:48;;;;;;;;;4.00;4.00;;;;;28.70;46.88;102066.06;5116900;27;45339;-80
2023/09/04 04:05:15;;;;;;;;;3.00;2.00;;;;;28.72;46.99;102072.88;5117080;27;45297;-79
2023/09/04 04:07:42;;;;;;;;;5.00;5.00;;;;;28.75;46.68;102077.00;5116601;27;45423;-80
2023/09/04 04:10:08;;;;;;;;;3.67;3.67;;;;;28.76;47.31;102072.44;5116777;27;46222;-79
2023/09/04 04:12:33;;;;;;;;;5.00;5.00;;;;;28.71;46.98;102068.53;5116407;27;45443;-80
2023/09/04 04:15:03;;;;;;;;;3.67;3.67;;;;;28.69;46.73;102053.69;5116072;27;45285;-79
2023/09/04 04:17:28;;;;;;;;;6.00;6.00;;;;;28.69;46.89;102059.03;5116406;27;45630;-80
2023/09/04 04:19:54;;;;;;;;;4.00;4.00;;;;;28.69;46.69;102059.88;5115000;27;45345;-80
2023/09/04 04:22:23;;;;;;;;;4.00;4.00;;;;;28.69;47.05;102065.22;5116982;27;45328;-80
2023/09/04 04:24:49;;;;;;;;;3.33;3.33;;;;;28.60;47.07;102048.47;5117773;27;45354;-80
2023/09/04 04:27:16;;;;;;;;;4.00;4.00;;;;;28.69;46.81;102062.56;5122881;27;45416;-80
2023/09/04 04:29:45;;;;;;;;;5.00;5.00;;;;;28.73;47.29;102069.16;5101611;27;45876;-80
2023/09/04 04:32:10;;;;;;;;;3.67;3.67;;;;;28.74;47.14;102073.50;5120313;27;45234;-80
2023/09/04 04:34:35;;;;;;;;;4.33;4.33;;;;;28.66;46.77;102052.22;5120176;27;45270;-80
2023/09/04 04:37:01;;;;;;;;;4.00;4.00;;;;;28.69;46.92;102054.53;5120443;27;45308;-80
2023/09/04 04:39:27;;;;;;;;;4.33;3.67;;;;;28.65;47.35;102053.25;5101707;27;46187;-80
2023/09/04 04:41:53;;;;;;;;;4.00;4.00;;;;;28.72;47.37;102069.38;5119943;27;45226;-80
2023/09/04 04:44:18;;;;;;;;;3.00;3.00;;;;;28.71;47.16;102067.69;5119687;27;45346;-80
2023/09/04 04:46:46;;;;;;;;;3.00;3.00;;;;;28.72;46.91;102072.88;5119976;27;45427;-79
2023/09/04 04:49:11;;;;;;;;;4.00;4.00;;;;;28.66;46.99;102054.91;5119885;27;46265;-79
2023/09/04 04:51:36;;;;;;;;;5.00;5.00;;;;;28.71;46.77;102071.22;5119828;27;45341;-79
2023/09/04 04:54:02;;;;;;;;;4.33;4.00;;;;;28.68;46.69;102066.25;5119325;27;45358;-79
2023/09/04 04:56:28;;;;;;;;;4.00;4.00;;;;;28.70;47.31;102072.22;5119716;27;45597;-80
2023/09/04 04:58:53;;;;;;;;;5.33;4.67;;;;;28.71;46.54;102076.56;5119354;27;46297;-80
2023/09/04 05:01:19;;;;;;;;;7.00;5.00;;;;;28.69;46.78;102075.09;5120077;27;45984;-80
2023/09/04 05:03:44;;;;;;;;;5.00;4.00;;;;;28.68;46.98;102070.75;5120220;27;45351;-80
2023/09/04 05:06:10;;;;;;;;;4.00;4.00;;;;;28.69;47.09;102077.78;5118624;27;45304;-80
2023/09/04 05:08:36;;;;;;;;;4.00;4.00;;;;;28.68;46.77;102062.72;5118204;27;45649;-80
2023/09/04 05:11:03;;;;;;;;;5.00;5.00;;;;;28.70;46.69;102064.19;5119935;27;45422;-80
2023/09/04 05:13:29;;;;;;;;;5.00;4.00;;;;;28.72;46.99;102064.00;5119713;27;45661;-80
2023/09/04 05:15:54;;;;;;;;;5.00;5.00;;;;;28.70;46.98;102063.38;5119672;27;45460;-79
2023/09/04 05:18:20;;;;;;;;;5.00;5.00;;;;;28.71;46.60;102071.22;5118153;27;47256;-80
2023/09/04 05:20:45;;;;;;;;;4.67;4.67;;;;;28.70;47.22;102064.19;5119029;27;45491;-79
2023/09/04 05:23:11;;;;;;;;;5.00;5.00;;;;;28.71;46.85;102065.03;5118974;27;45358;-83
2023/09/04 05:25:36;;;;;;;;;4.33;4.33;;;;;28.68;47.36;102070.75;5117787;27;45612;-82
2023/09/04 05:28:01;;;;;;;;;5.00;5.00;;;;;28.70;47.07;102068.75;5118592;27;46315;-77
2023/09/04 05:30:27;;;;;;;;;6.67;6.00;;;;;28.58;45.27;102063.91;5119146;27;45390;-79
2023/09/04 05:32:53;;;;;;;;;5.00;5.00;;;;;28.40;44.52;102062.53;5119373;27;45339;-78
2023/09/04 05:35:18;;;;;;;;;7.67;6.00;;;;;28.23;44.89;102069.19;5119165;27;45299;-80
2023/09/04 05:37:44;;;;;;;;;5.00;5.00;;;;;28.07;45.14;102069.28;5117954;27;45406;-80
2023/09/04 05:40:10;;;;;;;;;5.00;5.00;;;;;27.93;45.07;102062.13;5100308;27;45405;-76
2023/09/04 05:42:35;;;;;;;;;6.33;6.33;;;;;27.84;45.34;102072.16;5118173;27;45297;-80
2023/09/04 05:45:01;;;;;;;;;4.00;4.00;;;;;27.67;45.84;102050.97;5099265;27;45637;-75
2023/09/04 05:47:26;;;;;;;;;5.00;5.00;;;;;27.57;45.65;102061.97;5109304;27;46375;-80
2023/09/04 05:49:53;;;;;;;;;5.00;5.00;;;;;27.43;45.96;102054.81;5099706;27;45390;-80
2023/09/04 05:52:18;;;;;;;;;6.00;5.00;;;;;27.26;46.01;102053.19;5118188;27;45342;-80
2023/09/04 05:54:43;;;;;;;;;10.00;6.33;;;;;27.21;45.74;102060.09;5118242;27;45521;-80
2023/09/04 05:57:09;;;;;;;;;6.67;6.67;;;;;27.10;46.27;102058.69;5107662;27;46702;-79
2023/09/04 05:59:34;;;;;;;;;5.67;5.67;;;;;27.13;46.14;102053.84;5099337;27;45519;-78
2023/09/04 06:01:59;;;;;;;;;6.00;6.00;;;;;27.25;46.68;102056.88;5117998;27;45283;-78
2023/09/04 06:04:25;;;;;;;;;6.00;6.00;;;;;27.35;46.42;102061.91;5118220;27;45466;-79
2023/09/04 06:06:50;;;;;;;;;7.33;6.00;;;;;27.44;46.44;102053.78;5117437;27;46072;-79
2023/09/04 06:09:17;;;;;;;;;6.00;6.00;;;;;27.54;46.04;102061.50;5117752;27;45563;-80
2023/09/04 06:11:43;;;;;;;;;4.00;4.00;;;;;27.64;45.98;102062.03;5117011;27;45479;-81
2023/09/04 06:14:08;;;;;;;;;8.33;5.67;;;;;27.65;45.67;102052.16;5117708;27;45453;-79
2023/09/04 06:16:34;;;;;;;;;5.67;5.67;;;;;27.76;45.88;102058.88;5098971;27;46739;-83
2023/09/04 06:18:59;;;;;;;;;7.00;5.67;;;;;27.80;46.03;102047.63;5117017;27;45519;-78
2023/09/04 06:21:24;;;;;;;;;6.00;6.00;;;;;27.84;46.48;102048.09;5117558;27;45527;-80
2023/09/04 06:23:50;;;;;;;;;6.00;6.00;;;;;27.92;45.96;102055.94;5099091;27;45465;-80
2023/09/04 06:26:15;;;;;;;;;4.67;4.67;;;;;28.01;46.54;102045.13;5117337;27;46578;-79
2023/09/04 06:28:41;;;;;;;;;6.67;5.33;;;;;28.05;46.55;102052.56;5099488;27;45384;-79
2023/09/04 06:31:06;;;;;;;;;7.00;5.67;;;;;28.02;46.50;102036.09;5118322;27;45371;-79
2023/09/04 06:33:37;;;;;;;;;10.00;7.67;;;;;28.16;46.28;102050.41;5099692;27;45580;-79
2023/09/04 06:36:04;;;;;;;;;8.67;6.00;;;;;28.17;46.45;102060.09;5117476;27;46823;-78
2023/09/04 06:38:29;;;;;;;;;7.33;7.00;;;;;28.22;46.34;102051.47;5117968;27;45309;-79
2023/09/04 06:40:57;;;;;;;;;7.00;6.67;;;;;28.28;46.35;102058.75;5099266;27;45314;-79
2023/09/04 06:43:28;;;;;;;;;6.00;4.67;;;;;28.29;47.04;102053.19;5118633;27;45416;-79
2023/09/04 06:45:53;;;;;;;;;5.00;5.00;;;;;28.27;46.65;102046.38;5118765;27;46588;-79
2023/09/04 06:48:19;;;;;;;;;6.00;6.00;;;;;28.34;46.45;102052.59;5098968;27;45292;-79
2023/09/04 06:50:48;;;;;;;;;4.67;4.67;;;;;28.35;46.66;102050.75;5117859;27;45460;-79
2023/09/04 06:53:14;;;;;;;;;6.33;6.33;;;;;28.41;46.40;102068.72;5118100;27;45532;-79
2023/09/04 06:55:39;;;;;;;;;8.67;7.67;;;;;28.35;46.65;102056.94;5117179;27;46658;-79
2023/09/04 06:58:05;;;;;;;;;6.00;6.00;;;;;28.49;46.24;102068.63;5117762;27;45364;-79
2023/09/04 07:00:30;;;;;;;;;6.67;6.00;;;;;28.45;46.46;102058.47;5117739;27;45354;-79
2023/09/04 07:02:57;;;;;;;;;5.00;5.00;;;;;28.53;46.30;102069.03;5117851;27;45478;-79
2023/09/04 07:05:23;;;;;;;;;6.00;6.00;;;;;28.57;46.53;102072.16;5117665;27;46309;-79
2023/09/04 07:07:48;;;;;;;;;7.00;6.00;;;;;28.56;46.00;102062.47;5116672;27;45350;-79
2023/09/04 07:10:13;;;;;;;;;7.67;7.00;;;;;28.61;46.02;102065.38;5117262;27;45609;-79
2023/09/04 07:12:40;;;;;;;;;5.00;5.00;;;;;28.66;46.41;102072.81;5117687;27;45521;-79
2023/09/04 07:15:06;;;;;;;;;5.33;4.33;;;;;28.65;46.11;102063.16;5117452;27;46307;-79
2023/09/04 07:17:32;;;;;;;;;6.00;6.00;;;;;28.65;46.75;102052.44;5116860;27;45264;-79
2023/09/04 07:19:57;;;;;;;;;7.00;6.00;;;;;28.61;46.79;102041.28;5116468;27;45569;-79
2023/09/04 07:22:24;;;;;;;;;7.00;5.00;;;;;28.73;46.34;102062.97;5117045;27;45289;-78
2023/09/04 07:24:49;;;;;;;;;7.67;7.00;;;;;28.70;46.67;102050.00;5117419;27;46526;-79
2023/09/04 07:27:15;;;;;;;;;7.33;7.33;;;;;28.76;46.22;102051.03;5117374;27;45477;-78
2023/09/04 07:29:40;;;;;;;;;6.00;5.00;;;;;28.72;46.25;102039.91;5117299;27;45427;-79
2023/09/04 07:32:06;;;;;;;;;6.00;6.00;;;;;28.73;46.42;102047.72;5117363;27;45629;-79
2023/09/04 07:34:31;;;;;;;;;7.67;6.00;;;;;28.83;46.35;102054.59;5115933;27;45511;-79
2023/09/04 07:36:56;;;;;;;;;8.33;6.00;;;;;28.84;46.12;102054.38;5116780;27;45370;-79
2023/09/04 07:39:22;;;;;;;;;5.67;5.67;;;;;28.79;46.16;102048.78;5117235;27;45683;-79
2023/09/04 07:41:47;;;;;;;;;6.00;6.00;;;;;28.77;46.49;102040.13;5094572;27;45447;-79
2023/09/04 07:44:13;;;;;;;;;6.67;6.67;;;;;28.82;46.17;102045.72;5095909;27;45453;-79
2023/09/04 07:46:40;;;;;;;;;6.33;6.33;;;;;28.88;46.47;102052.16;5078142;27;45419;-78
2023/09/04 07:49:05;;;;;;;;;5.00;5.00;;;;;28.90;46.48;102049.25;5096260;27;45342;-79
2023/09/04 07:51:31;;;;;;;;;7.67;5.00;;;;;28.91;46.47;102056.28;5095758;27;45457;-79
2023/09/04 07:53:56;;;;;;;;;4.67;4.67;;;;;28.92;46.25;102041.84;5077643;27;45508;-79
2023/09/04 07:56:23;;;;;;;;;5.33;5.33;;;;;28.96;45.68;102053.84;5096451;27;45303;-79
2023/09/04 07:58:49;;;;;;;;;5.00;5.00;;;;;28.93;45.91;102038.16;5095664;27;45385;-78
2023/09/04 08:01:14;;;;;;;;;5.00;5.00;;;;;28.99;46.15;102058.78;5094699;27;45586;-79
2023/09/04 08:03:40;;;;;;;;;5.67;5.67;;;;;29.05;46.15;102067.88;5094772;27;46165;-79
2023/09/04 08:06:06;;;;;;;;;4.67;4.67;;;;;29.01;46.50;102053.25;5096154;27;45350;-79
2023/09/04 08:08:31;;;;;;;;;6.00;6.00;;;;;29.06;46.43;102050.78;5078088;27;45361;-79
2023/09/04 08:10:57;;;;;;;;;5.00;5.00;;;;;29.06;46.36;102048.09;5096398;27;45563;-79
2023/09/04 08:13:22;;;;;;;;;5.00;5.00;;;;;29.07;46.30;102055.09;5095926;27;45352;-79
2023/09/04 08:15:48;;;;;;;;;5.00;5.00;;;;;29.07;46.14;102045.22;5094616;27;45381;-79
2023/09/04 08:18:13;;;;;;;;;7.33;5.67;;;;;29.08;46.25;102043.38;5078030;27;45390;-79
2023/09/04 08:20:39;;;;;;;;;6.00;6.00;;;;;29.09;45.62;102039.72;5077603;27;45742;-79
2023/09/04 08:23:12;;;;;;;;;8.00;6.00;;;;;29.10;46.28;102037.84;5096226;27;45362;-79
2023/09/04 08:25:38;;;;;;;;;5.67;5.67;;;;;29.08;46.07;102048.72;5096074;27;45413;-80
2023/09/04 08:28:04;;;;;;;;;7.00;6.67;;;;;29.11;46.33;102039.50;5096117;27;45410;-79
2023/09/04 08:30:30;;;;;;;;;7.00;5.00;;;;;29.17;45.87;102041.38;5095769;27;45283;-79
2023/09/04 08:32:55;;;;;;;;;6.00;6.00;;;;;29.19;45.92;102036.66;5094557;27;45487;-79
2023/09/04 08:35:21;;;;;;;;;6.33;4.00;;;;;29.16;45.73;102020.97;5095283;27;45483;-79
2023/09/04 08:37:47;;;;;;;;;5.67;5.67;;;;;29.16;45.80;102019.13;5095873;27;45384;-80
2023/09/04 08:40:13;;;;;;;;;6.00;5.67;;;;;29.22;45.73;102027.38;5093051;27;45479;-80
2023/09/04 08:42:39;;;;;;;;;4.67;4.67;;;;;29.26;46.47;102029.44;5097578;27;46333;-80
2023/09/04 08:45:08;;;;;;;;;6.67;5.33;;;;;29.24;45.74;102034.19;5115304;27;45378;-79
2023/09/04 08:47:40;;;;;;;;;7.00;4.67;;;;;29.28;45.63;102027.38;5116256;27;45385;-80
2023/09/04 08:50:07;;;;;;;;;6.33;6.33;;;;;29.30;46.16;102027.22;5115936;27;45509;-80
2023/09/04 08:52:33;;;;;;;;;5.00;5.00;;;;;29.32;45.90;102027.00;5097649;27;46790;-80
2023/09/04 08:54:59;;;;;;;;;4.00;4.00;;;;;29.33;45.63;102026.78;5124855;27;45509;-80
2023/09/04 08:57:25;;;;;;;;;6.00;5.67;;;;;29.38;45.60;102032.38;5116737;27;45275;-79
2023/09/04 08:59:51;;;;;;;;;5.00;5.00;;;;;29.38;45.74;102015.47;5114979;27;45574;-80
2023/09/04 09:02:16;;;;;;;;;5.00;5.00;;;;;29.39;45.82;102011.75;5117067;27;45357;-79
2023/09/04 09:04:42;;;;;;;;;5.00;5.00;;;;;29.36;45.96;102004.09;5115546;27;45450;-79
2023/09/04 09:07:10;;;;;;;;;6.00;4.33;;;;;29.37;45.83;102009.28;5116205;27;45262;-79
2023/09/04 09:09:43;;;;;;;;;7.00;6.00;;;;;29.39;45.79;102009.91;5097722;27;45375;-79
2023/09/04 09:12:09;;;;;;;;;5.00;5.00;;;;;29.43;45.75;102014.88;5118602;27;47242;-79
2023/09/04 09:14:34;;;;;;;;;5.00;5.00;;;;;29.44;45.83;102024.53;5100315;27;45327;-79
2023/09/04 09:17:04;;;;;;;;;5.00;4.33;;;;;29.50;45.83;102026.41;5119799;27;45388;-79
2023/09/04 09:19:33;;;;;;;;;7.00;5.67;;;;;29.38;45.82;102008.25;5119285;27;45537;-79
2023/09/04 09:22:21;;;;;;;;;5.67;5.67;;;;;29.46;45.83;102012.59;5119443;27;45517;-79
2023/09/04 09:25:00;;;;;;;;;6.67;5.67;;;;;29.54;45.58;102014.25;5114686;27;45526;-79
2023/09/04 09:27:28;;;;;;;;;4.00;4.00;;;;;29.49;45.48;101993.41;5119512;27;45490;-79
2023/09/04 09:29:58;;;;;;;;;5.00;5.00;;;;;29.51;45.70;102001.25;5119301;27;45514;-79
2023/09/04 09:32:27;;;;;;;;;4.00;4.00;;;;;29.61;45.82;102006.22;5119225;27;46210;-79
2023/09/04 09:34:54;;;;;;;;;3.67;3.00;;;;;29.59;45.57;101998.38;5118667;27;45379;-79
2023/09/04 09:37:21;;;;;;;;;4.00;3.67;;;;;29.62;45.45;101999.81;5119390;27;45336;-79
2023/09/04 09:39:47;;;;;;;;;5.67;5.67;;;;;29.58;45.55;101998.59;5119291;27;45343;-79
2023/09/04 09:42:12;;;;;;;;;5.00;4.67;;;;;29.60;45.46;102008.09;5119041;27;46162;-79
2023/09/04 09:44:38;;;;;;;;;5.00;5.00;;;;;29.61;45.40;101990.94;5119671;27;45403;-79
2023/09/04 09:47:12;;;;;;;;;4.67;4.67;;;;;29.63;45.46;102006.84;5118957;27;45329;-79
2023/09/04 09:49:40;;;;;;;;;5.00;5.00;;;;;29.62;45.58;101987.25;5119139;27;45355;-79
2023/09/04 09:52:10;;;;;;;;;5.00;5.00;;;;;29.64;45.43;101981.66;5100515;27;47115;-79
2023/09/04 09:54:38;;;;;;;;;5.00;5.00;;;;;29.67;45.49;101980.44;5117718;27;45367;-79
2023/09/04 09:57:08;;;;;;;;;6.00;5.33;;;;;29.62;45.33;101968.47;5119172;27;45380;-78
2023/09/04 09:59:36;;;;;;;;;5.67;3.33;;;;;29.64;45.15;101968.25;5119166;27;45589;-79
2023/09/04 10:02:03;;;;;;;;;6.00;6.00;;;;;29.65;45.27;101969.91;5118372;27;45848;-79
2023/09/04 10:04:31;;;;;;;;;4.33;4.33;;;;;29.69;45.33;101968.47;5118754;27;45386;-79
2023/09/04 10:06:59;;;;;;;;;5.00;5.00;;;;;29.67;45.51;101970.53;5117615;27;45344;-79
2023/09/04 10:09:27;;;;;;;;;4.00;4.00;;;;;29.66;45.16;101968.91;5099642;27;45594;-79
2023/09/04 10:12:10;;;;;;;;;5.00;5.00;;;;;29.67;45.07;101953.63;5118595;27;45692;-79
2023/09/04 10:14:41;;;;;;;;;6.00;4.00;;;;;29.68;45.56;101961.47;5118129;27;45442;-79
2023/09/04 10:17:11;;;;;;;;;5.00;4.00;;;;;29.63;45.31;101958.59;5117689;27;45361;-79
2023/09/04 10:19:42;;;;;;;;;4.67;3.67;;;;;29.60;45.08;101945.56;5118692;27;45364;-79
2023/09/04 10:22:14;;;;;;;;;4.67;4.67;;;;;29.69;45.06;101962.31;5099148;27;45527;-79
2023/09/04 10:24:55;;;;;;;;;4.67;4.00;;;;;29.64;44.68;101949.50;5116141;27;45413;-79
2023/09/04 10:27:25;;;;;;;;;5.33;5.33;;;;;29.63;45.52;101956.72;5118455;27;45273;-79
2023/09/04 10:29:56;;;;;;;;;5.67;5.67;;;;;29.66;45.49;101949.31;5116732;27;45545;-79
2023/09/04 10:32:22;;;;;;;;;4.67;4.67;;;;;29.62;45.21;101938.97;5117812;27;46120;-79
2023/09/04 10:34:48;;;;;;;;;5.00;5.00;;;;;29.59;45.36;101925.16;5118266;27;45436;-79
2023/09/04 10:37:14;;;;;;;;;6.00;5.33;;;;;29.63;45.42;101923.72;5118116;27;45360;-79
2023/09/04 10:39:40;;;;;;;;;5.67;5.67;;;;;29.60;45.50;101913.41;5103796;27;45381;-79
2023/09/04 10:42:07;;;;;;;;;6.00;6.00;;;;;29.65;45.11;101926.19;5108548;27;46588;-79
2023/09/04 10:44:53;;;;;;;;;6.67;6.67;;;;;29.66;45.67;101922.47;5117874;27;45319;-78
2023/09/04 10:47:20;;;;;;;;;3.67;3.67;;;;;29.60;45.49;101913.41;5117606;27;45213;-79
2023/09/04 10:49:46;;;;;;;;;5.00;5.00;;;;;29.61;45.63;101918.53;5118043;27;45308;-79
2023/09/04 10:52:12;;;;;;;;;4.67;4.67;;;;;29.60;45.37;101913.41;5117522;27;45627;-79
2023/09/04 10:54:39;;;;;;;;;4.67;4.67;;;;;29.58;45.65;101897.53;5116540;27;45433;-79
2023/09/04 10:57:07;;;;;;;;;3.33;3.33;;;;;29.60;45.50;101905.38;5117266;27;45371;-79
2023/09/04 10:59:54;;;;;;;;;6.33;6.00;;;;;29.61;45.27;101910.50;5117608;27;45736;-78
2023/09/04 11:02:36;;;;;;;;;3.00;3.00;;;;;29.57;45.35;101906.59;5117988;27;46606;-79
2023/09/04 11:05:03;;;;;;;;;5.00;5.00;;;;;29.61;45.35;101901.66;5099427;27;45345;-79
2023/09/04 11:07:30;;;;;;;;;5.00;5.00;;;;;29.59;45.29;101912.56;5116514;27;45325;-79
2023/09/04 11:10:27;;;;;;;;;5.00;5.00;;;;;29.60;45.64;101898.16;5117701;27;45586;-79
2023/09/04 11:12:52;;;;;;;;;4.67;4.67;;;;;29.56;45.70;101885.38;5117595;27;46282;-79
2023/09/04 11:15:18;;;;;;;;;4.00;4.00;;;;;29.59;45.69;101887.59;5116888;27;45365;-79
2023/09/04 11:17:48;;;;;;;;;3.00;3.00;;;;;29.60;45.42;101892.78;5116410;27;45404;-79
2023/09/04 11:20:15;;;;;;;;;4.00;4.00;;;;;29.53;45.41;101881.25;5117630;27;45171;-79
2023/09/04 11:22:47;;;;;;;;;7.00;5.00;;;;;29.43;45.46;101857.53;5117314;27;45948;-79